createdAt,value
2022-08-19T00:01:52.874Z,14.15
2022-08-19T00:04:28.533Z,14.55
2022-08-19T00:06:56.264Z,13.18
2022-08-19T00:09:25.238Z,11.80
2022-08-19T00:11:53.473Z,12.20
2022-08-19T00:14:21.817Z,14.23
2022-08-19T00:16:49.999Z,11.18
2022-08-19T00:19:18.160Z,11.65
2022-08-19T00:21:45.344Z,11.48
2022-08-19T00:24:16.296Z,13.35
2022-08-19T00:26:46.134Z,13.68
2022-08-19T00:29:15.837Z,11.88
2022-08-19T00:31:44.164Z,11.77
2022-08-19T00:34:13.221Z,13.18
2022-08-19T00:36:42.044Z,14.38
2022-08-19T00:39:09.844Z,12.45
2022-08-19T00:41:37.101Z,11.68
2022-08-19T00:44:10.570Z,13.48
2022-08-19T00:46:39.831Z,11.07
2022-08-19T00:49:23.562Z,11.82
2022-08-19T00:52:00.113Z,15.15
2022-08-19T00:54:31.303Z,13.68
2022-08-19T00:57:00.622Z,13.15
2022-08-19T00:59:56.191Z,13.98
2022-08-19T01:02:17.863Z,14.82
2022-08-19T01:04:45.018Z,14.20
2022-08-19T01:07:15.097Z,14.73
2022-08-19T01:09:44.934Z,13.60
2022-08-19T01:12:12.395Z,12.70
2022-08-19T01:14:40.984Z,12.77
2022-08-19T01:17:12.890Z,13.30
2022-08-19T01:19:44.131Z,13.27
2022-08-19T01:22:31.542Z,13.05
2022-08-19T01:25:01.060Z,14.02
2022-08-19T01:27:43.079Z,12.25
2022-08-19T01:30:15.364Z,13.77
2022-08-19T01:32:44.202Z,15.70
2022-08-19T01:35:13.281Z,15.75
2022-08-19T01:37:56.608Z,14.75
2022-08-19T01:40:27.587Z,15.18
2022-08-19T01:42:55.211Z,15.70
2022-08-19T01:45:25.686Z,14.55
2022-08-19T01:48:01.888Z,17.05
2022-08-19T01:50:31.884Z,15.00
2022-08-19T01:53:06.286Z,16.35
2022-08-19T01:55:40.999Z,15.95
2022-08-19T01:58:20.335Z,14.40
2022-08-19T02:00:48.727Z,16.88
2022-08-19T02:03:16.994Z,16.35
2022-08-19T02:05:44.942Z,18.73
2022-08-19T02:08:13.052Z,16.58
2022-08-19T02:10:43.347Z,16.30
2022-08-19T02:13:12.038Z,16.00
2022-08-19T02:15:39.361Z,16.70
2022-08-19T02:18:07.416Z,17.45
2022-08-19T02:20:34.905Z,16.20
2022-08-19T02:23:02.306Z,18.90
2022-08-19T02:25:29.600Z,16.65
2022-08-19T02:27:56.682Z,18.08
2022-08-19T02:30:25.649Z,18.25
2022-08-19T02:32:53.726Z,16.63
2022-08-19T02:35:21.008Z,17.67
2022-08-19T02:38:06.788Z,15.50
2022-08-19T02:40:35.363Z,17.58
2022-08-19T02:43:08.427Z,14.65
2022-08-19T02:45:40.427Z,17.40
2022-08-19T02:48:17.925Z,17.55
2022-08-19T02:50:56.352Z,14.90
2022-08-19T02:53:27.191Z,15.60
2022-08-19T02:55:54.979Z,14.80
2022-08-19T02:58:23.433Z,15.65
2022-08-19T03:00:56.984Z,18.02
2022-08-19T03:03:24.613Z,16.67
2022-08-19T03:05:56.836Z,14.80
2022-08-19T03:08:25.458Z,16.90
2022-08-19T03:10:54.060Z,18.70
2022-08-19T03:13:21.433Z,13.70
2022-08-19T03:15:49.187Z,17.48
2022-08-19T03:18:17.973Z,16.42
2022-08-19T03:20:48.486Z,15.70
2022-08-19T03:23:16.390Z,15.32
2022-08-19T03:25:46.809Z,16.40
2022-08-19T03:28:25.333Z,15.10
2022-08-19T03:30:59.512Z,16.15
2022-08-19T03:33:30.858Z,18.42
2022-08-19T03:36:08.468Z,17.38
2022-08-19T03:38:41.301Z,15.57
2022-08-19T03:41:12.062Z,16.52
2022-08-19T03:43:40.625Z,15.43
2022-08-19T03:46:13.053Z,16.88
2022-08-19T03:48:42.402Z,19.90
2022-08-19T03:51:18.314Z,16.35
2022-08-19T03:54:01.393Z,16.60
2022-08-19T03:56:29.302Z,17.65
2022-08-19T03:58:57.886Z,18.35
2022-08-19T04:01:35.113Z,19.35
2022-08-19T04:04:04.825Z,16.92
2022-08-19T04:06:35.520Z,16.08
2022-08-19T04:09:10.408Z,17.80
2022-08-19T04:11:44.955Z,16.63
2022-08-19T04:14:19.428Z,17.52
2022-08-19T04:16:48.986Z,16.15
2022-08-19T04:19:18.111Z,14.82
2022-08-19T04:21:48.932Z,17.60
2022-08-19T04:24:16.575Z,14.05
2022-08-19T04:26:44.258Z,15.00
2022-08-19T04:29:23.032Z,16.52
2022-08-19T04:31:50.717Z,14.98
2022-08-19T04:34:23.244Z,15.70
2022-08-19T04:36:52.172Z,16.85
2022-08-19T04:39:24.111Z,16.08
2022-08-19T04:42:10.252Z,16.25
2022-08-19T04:44:39.906Z,16.45
2022-08-19T04:47:13.584Z,16.00
2022-08-19T04:49:41.099Z,16.58
2022-08-19T04:52:09.456Z,14.73
2022-08-19T04:54:38.336Z,15.05
2022-08-19T04:57:11.312Z,14.90
2022-08-19T04:59:40.441Z,15.27
2022-08-19T05:02:09.663Z,14.38
2022-08-19T05:04:40.104Z,15.30
2022-08-19T05:07:08.951Z,15.68
2022-08-19T05:09:57.638Z,14.90
2022-08-19T05:12:28.788Z,13.98
2022-08-19T05:14:58.343Z,14.45
2022-08-19T05:17:29.670Z,14.10
2022-08-19T05:20:18.114Z,12.93
2022-08-19T05:22:47.168Z,13.40
2022-08-19T05:25:20.054Z,12.77
2022-08-19T05:27:48.171Z,12.50
2022-08-19T05:30:15.958Z,12.85
2022-08-19T05:32:43.932Z,12.10
2022-08-19T05:35:12.276Z,12.27
2022-08-19T05:37:41.484Z,12.20
2022-08-19T05:40:10.643Z,10.98
2022-08-19T05:42:38.859Z,10.95
2022-08-19T05:45:08.717Z,11.70
2022-08-19T05:47:36.628Z,11.18
2022-08-19T05:50:09.831Z,11.02
2022-08-19T05:52:39.128Z,11.10
2022-08-19T05:55:11.516Z,10.65
2022-08-19T05:57:38.810Z,11.52
2022-08-19T06:00:11.963Z,11.43
2022-08-19T06:02:39.770Z,9.55
2022-08-19T06:05:08.240Z,9.23
2022-08-19T06:07:36.627Z,9.70
2022-08-19T06:10:06.926Z,9.38
2022-08-19T06:12:35.966Z,9.98
2022-08-19T06:15:08.081Z,9.95
2022-08-19T06:17:36.234Z,10.00
2022-08-19T06:20:09.719Z,9.07
2022-08-19T06:22:45.853Z,9.63
2022-08-19T06:25:15.139Z,9.40
2022-08-19T06:28:11.521Z,8.45
2022-08-19T06:30:30.610Z,9.63
2022-08-19T06:32:57.999Z,8.15
2022-08-19T06:35:26.401Z,7.93
2022-08-19T06:37:53.623Z,7.85
2022-08-19T06:40:21.171Z,7.68
2022-08-19T06:42:50.977Z,7.78
2022-08-19T06:45:24.831Z,7.50
2022-08-19T06:47:55.328Z,7.13
2022-08-19T06:50:26.019Z,7.40
2022-08-19T06:52:53.658Z,7.70
2022-08-19T06:55:21.094Z,6.85
2022-08-19T06:57:49.177Z,7.22
2022-08-19T07:00:16.991Z,7.32
2022-08-19T07:02:49.630Z,7.50
2022-08-19T07:05:20.684Z,7.82
2022-08-19T07:07:47.870Z,7.45
2022-08-19T07:10:15.192Z,7.28
2022-08-19T07:12:42.681Z,7.50
2022-08-19T07:15:11.894Z,7.18
2022-08-19T07:17:40.258Z,7.00
2022-08-19T07:20:10.642Z,8.05
2022-08-19T07:22:39.039Z,7.10
2022-08-19T07:25:09.267Z,7.20
2022-08-19T07:27:38.082Z,7.45
2022-08-19T07:30:12.344Z,6.68
2022-08-19T07:32:41.057Z,7.05
2022-08-19T07:35:10.291Z,6.72
2022-08-19T07:37:38.257Z,7.28
2022-08-19T07:40:08.145Z,6.38
2022-08-19T07:42:35.883Z,6.70
2022-08-19T07:45:03.724Z,7.25
2022-08-19T07:47:49.242Z,7.22
2022-08-19T07:50:20.930Z,6.68
2022-08-19T07:52:50.597Z,6.75
2022-08-19T07:55:41.740Z,6.75
2022-08-19T07:58:13.703Z,7.28
2022-08-19T08:00:42.698Z,6.60
2022-08-19T08:03:10.289Z,7.00
2022-08-19T08:05:56.170Z,6.63
2022-08-19T08:08:44.342Z,6.97
2022-08-19T08:11:19.952Z,7.35
2022-08-19T08:14:00.800Z,6.85
2022-08-19T08:16:34.962Z,6.30
2022-08-19T08:19:02.141Z,7.05
2022-08-19T08:21:29.377Z,6.47
2022-08-19T08:23:56.924Z,6.18
2022-08-19T08:26:26.037Z,7.13
2022-08-19T08:28:54.188Z,6.40
2022-08-19T08:31:21.650Z,6.07
2022-08-19T08:33:49.029Z,6.60
2022-08-19T08:36:17.161Z,6.38
2022-08-19T08:38:46.663Z,6.20
2022-08-19T08:41:34.629Z,6.55
2022-08-19T08:44:05.166Z,6.68
2022-08-19T08:46:44.601Z,6.85
2022-08-19T08:49:29.998Z,6.40
2022-08-19T08:52:32.121Z,6.90
2022-08-19T08:55:10.087Z,6.15
2022-08-19T08:58:04.247Z,7.47
2022-08-19T09:00:33.103Z,6.30
2022-08-19T09:03:04.510Z,5.88
2022-08-19T09:05:39.642Z,6.28
2022-08-19T09:08:37.850Z,5.68
2022-08-19T09:11:10.752Z,5.63
2022-08-19T09:16:28.636Z,5.60
2022-08-19T09:19:02.890Z,5.20
2022-08-19T09:21:30.459Z,5.30
2022-08-19T09:24:05.457Z,5.70
2022-08-19T09:26:47.679Z,5.35
2022-08-19T09:29:22.444Z,5.25
2022-08-19T09:31:50.952Z,5.57
2022-08-19T09:34:22.126Z,8.75
2022-08-19T09:36:56.152Z,5.43
2022-08-19T09:39:23.684Z,5.28
2022-08-19T09:41:51.412Z,4.90
2022-08-19T09:44:21.931Z,4.50
2022-08-19T09:46:49.341Z,4.55
2022-08-19T09:49:18.704Z,5.22
2022-08-19T09:51:51.295Z,5.22
2022-08-19T09:54:25.046Z,5.15
2022-08-19T09:56:54.430Z,5.00
2022-08-19T09:59:22.678Z,5.18
2022-08-19T10:01:49.801Z,4.55
2022-08-19T10:04:20.247Z,4.75
2022-08-19T10:06:53.812Z,4.70
2022-08-19T10:09:26.302Z,4.75
2022-08-19T10:12:04.499Z,5.53
2022-08-19T10:14:33.747Z,4.63
2022-08-19T10:17:04.594Z,4.80
2022-08-19T10:19:53.396Z,4.90
2022-08-19T10:22:23.904Z,4.50
2022-08-19T10:24:53.533Z,5.30
2022-08-19T10:27:20.783Z,5.15
2022-08-19T10:29:48.845Z,4.43
2022-08-19T10:32:16.174Z,6.55
2022-08-19T10:34:48.624Z,4.80
2022-08-19T10:37:23.716Z,4.53
2022-08-19T10:39:51.840Z,4.22
2022-08-19T10:42:20.123Z,4.35
2022-08-19T10:44:47.867Z,4.65
2022-08-19T10:47:24.613Z,4.10
2022-08-19T10:50:13.240Z,4.53
2022-08-19T10:52:49.088Z,4.22
2022-08-19T10:55:39.432Z,4.40
2022-08-19T10:58:16.409Z,4.28
2022-08-19T11:00:44.736Z,4.65
2022-08-19T11:03:12.726Z,4.25
2022-08-19T11:05:40.766Z,4.10
2022-08-19T11:08:18.115Z,4.28
2022-08-19T11:10:54.702Z,4.20
2022-08-19T11:13:24.169Z,4.68
2022-08-19T11:16:08.579Z,4.95
2022-08-19T11:18:41.307Z,4.40
2022-08-19T11:21:21.112Z,4.22
2022-08-19T11:23:50.210Z,4.18
2022-08-19T11:26:19.860Z,4.30
2022-08-19T11:28:47.493Z,4.70
2022-08-19T11:31:18.429Z,4.47
2022-08-19T11:33:47.978Z,4.15
2022-08-19T11:36:17.052Z,4.55
2022-08-19T11:38:45.645Z,4.70
2022-08-19T11:41:14.172Z,4.32
2022-08-19T11:43:41.332Z,4.00
2022-08-19T11:46:10.900Z,4.28
2022-08-19T11:48:38.928Z,4.15
2022-08-19T11:51:10.392Z,4.20
2022-08-19T11:53:38.736Z,4.30
2022-08-19T11:56:07.863Z,4.35
2022-08-19T11:58:35.575Z,4.35
2022-08-19T12:01:06.364Z,4.45
2022-08-19T12:03:35.025Z,4.00
2022-08-19T12:06:11.089Z,3.95
2022-08-19T12:08:39.234Z,3.97
2022-08-19T12:11:08.891Z,4.70
2022-08-19T12:13:37.725Z,4.00
2022-08-19T12:16:17.533Z,4.18
2022-08-19T12:18:47.283Z,3.92
2022-08-19T12:21:16.048Z,4.15
2022-08-19T12:23:43.814Z,4.03
2022-08-19T12:26:12.678Z,4.05
2022-08-19T12:28:40.248Z,4.03
2022-08-19T12:31:07.370Z,4.28
2022-08-19T12:33:35.169Z,3.30
2022-08-19T12:36:06.656Z,3.70
2022-08-19T12:38:35.636Z,3.85
2022-08-19T12:41:07.324Z,3.78
2022-08-19T12:43:42.821Z,4.03
2022-08-19T12:46:11.030Z,4.32
2022-08-19T12:48:42.640Z,4.13
2022-08-19T12:51:13.170Z,4.05
2022-08-19T12:53:41.376Z,3.80
2022-08-19T12:56:12.769Z,4.10
2022-08-19T12:58:40.343Z,4.50
2022-08-19T13:01:13.582Z,4.55
2022-08-19T13:03:40.962Z,3.90
2022-08-19T13:06:09.695Z,3.53
2022-08-19T13:08:37.529Z,4.47
2022-08-19T13:11:12.844Z,4.25
2022-08-19T13:13:42.191Z,3.88
2022-08-19T13:16:12.008Z,3.67
2022-08-19T13:18:40.801Z,3.70
2022-08-19T13:21:10.038Z,3.83
2022-08-19T13:23:37.492Z,4.22
2022-08-19T13:26:07.160Z,3.30
2022-08-19T13:28:54.362Z,3.67
2022-08-19T13:31:41.774Z,4.20
2022-08-19T13:34:09.325Z,3.70
2022-08-19T13:36:37.826Z,3.63
2022-08-19T13:39:06.893Z,3.60
2022-08-19T13:41:34.866Z,4.00
2022-08-19T13:44:02.884Z,4.15
2022-08-19T13:46:31.557Z,3.72
2022-08-19T13:48:58.910Z,3.83
2022-08-19T13:51:26.064Z,4.47
2022-08-19T13:53:53.825Z,3.75
2022-08-19T13:56:25.879Z,3.92
2022-08-19T13:58:54.494Z,3.90
2022-08-19T14:01:24.477Z,3.33
2022-08-19T14:03:52.448Z,3.80
2022-08-19T14:06:20.064Z,3.45
2022-08-19T14:08:47.365Z,3.83
2022-08-19T14:11:15.054Z,3.65
2022-08-19T14:13:42.403Z,4.20
2022-08-19T14:16:11.051Z,3.88
2022-08-19T14:18:39.517Z,4.03
2022-08-19T14:21:07.670Z,4.05
2022-08-19T14:23:36.988Z,4.75
2022-08-19T14:26:16.705Z,4.00
2022-08-19T14:28:45.479Z,4.13
2022-08-19T14:31:17.672Z,3.88
2022-08-19T14:33:44.902Z,3.55
2022-08-19T14:36:12.189Z,4.60
2022-08-19T14:38:40.352Z,3.60
2022-08-19T14:41:17.755Z,3.92
2022-08-19T14:43:47.403Z,3.78
2022-08-19T14:46:17.100Z,3.53
2022-08-19T14:48:45.070Z,4.15
2022-08-19T14:51:12.502Z,3.40
2022-08-19T14:53:39.910Z,3.45
2022-08-19T14:56:12.996Z,3.60
2022-08-19T14:58:44.186Z,3.65
2022-08-19T15:01:12.606Z,3.72
2022-08-19T15:03:41.552Z,4.75
2022-08-19T15:06:09.585Z,4.10
2022-08-19T15:08:42.101Z,3.63
2022-08-19T15:11:11.714Z,3.70
2022-08-19T15:13:40.139Z,3.78
2022-08-19T15:16:07.869Z,3.80
2022-08-19T15:18:47.475Z,3.85
2022-08-19T15:21:26.625Z,4.88
2022-08-19T15:23:56.460Z,4.80
2022-08-19T15:26:23.644Z,6.85
2022-08-19T15:28:50.956Z,4.00
2022-08-19T15:31:25.344Z,5.50
2022-08-19T15:33:58.951Z,3.88
2022-08-19T15:36:27.585Z,4.05
2022-08-19T15:38:56.726Z,3.78
2022-08-19T15:41:30.493Z,3.95
2022-08-19T15:44:10.365Z,3.75
2022-08-19T15:46:40.185Z,5.35
2022-08-19T15:49:10.633Z,5.32
2022-08-19T15:51:39.509Z,6.22
2022-08-19T15:54:08.990Z,5.22
2022-08-19T15:57:08.642Z,3.67
2022-08-19T15:59:55.886Z,4.00
2022-08-19T16:02:47.100Z,4.20
2022-08-19T16:05:36.501Z,3.95
2022-08-19T16:08:03.881Z,4.18
2022-08-19T16:10:31.329Z,3.70
2022-08-19T16:12:59.128Z,3.28
2022-08-19T16:15:28.538Z,3.92
2022-08-19T16:17:57.671Z,3.50
2022-08-19T16:20:27.261Z,3.55
2022-08-19T16:22:58.627Z,3.13
2022-08-19T16:25:28.582Z,3.30
2022-08-19T16:28:06.537Z,3.10
2022-08-19T16:30:40.267Z,3.60
2022-08-19T16:33:10.433Z,3.85
2022-08-19T16:35:37.866Z,3.38
2022-08-19T16:38:06.910Z,3.65
2022-08-19T16:40:35.607Z,3.78
2022-08-19T16:43:03.327Z,4.53
2022-08-19T16:45:30.630Z,5.45
2022-08-19T16:47:58.428Z,7.82
2022-08-19T16:50:46.110Z,4.00
2022-08-19T16:53:14.185Z,3.67
2022-08-19T16:55:41.417Z,3.90
2022-08-19T16:58:08.641Z,3.88
2022-08-19T17:00:35.976Z,4.53
2022-08-19T17:03:10.003Z,4.25
2022-08-19T17:05:47.798Z,4.03
2022-08-19T17:08:19.187Z,3.92
2022-08-19T17:11:07.875Z,3.45
2022-08-19T17:13:35.645Z,3.50
2022-08-19T17:16:03.256Z,3.42
2022-08-19T17:18:32.778Z,3.50
2022-08-19T17:21:01.235Z,4.65
2022-08-19T17:23:43.222Z,3.97
2022-08-19T17:26:18.306Z,3.97
2022-08-19T17:28:51.288Z,3.90
2022-08-19T17:31:21.176Z,3.75
2022-08-19T17:33:49.125Z,3.88
2022-08-19T17:36:17.950Z,5.45
2022-08-19T17:38:45.403Z,4.95
2022-08-19T17:41:12.677Z,4.95
2022-08-19T17:43:43.665Z,5.88
2022-08-19T17:46:18.105Z,3.33
2022-08-19T17:48:52.080Z,4.55
2022-08-19T17:51:35.940Z,3.85
2022-08-19T17:54:05.416Z,4.10
2022-08-19T17:56:32.757Z,4.05
2022-08-19T17:59:01.815Z,4.30
2022-08-19T18:01:52.107Z,4.38
2022-08-19T18:04:18.950Z,4.38
2022-08-19T18:06:52.708Z,4.25
2022-08-19T18:09:30.048Z,3.95
2022-08-19T18:12:12.791Z,3.70
2022-08-19T18:14:41.380Z,5.55
2022-08-19T18:17:12.469Z,5.30
2022-08-19T18:19:43.522Z,6.25
2022-08-19T18:22:36.480Z,5.38
2022-08-19T18:25:11.544Z,5.65
2022-08-19T18:27:39.177Z,4.25
2022-08-19T18:30:07.981Z,5.00
2022-08-19T18:32:38.487Z,4.32
2022-08-19T18:35:16.528Z,4.00
2022-08-19T18:37:45.380Z,4.65
2022-08-19T18:40:35.490Z,4.00
2022-08-19T18:43:22.337Z,3.92
2022-08-19T18:48:55.734Z,4.15
2022-08-19T18:51:27.792Z,4.20
2022-08-19T18:53:58.825Z,4.05
2022-08-19T18:56:35.189Z,3.90
2022-08-19T18:59:02.581Z,5.07
2022-08-19T19:01:36.792Z,4.80
2022-08-19T19:04:10.692Z,4.20
2022-08-19T19:06:41.037Z,4.50
2022-08-19T19:09:10.594Z,3.55
2022-08-19T19:11:46.316Z,4.22
2022-08-19T19:14:38.783Z,4.18
2022-08-19T19:17:08.180Z,3.70
2022-08-19T19:19:35.666Z,4.20
2022-08-19T19:22:04.551Z,4.38
2022-08-19T19:24:37.428Z,4.32
2022-08-19T19:27:08.352Z,4.13
2022-08-19T19:29:37.044Z,4.00
2022-08-19T19:32:07.230Z,4.80
2022-08-19T19:34:37.016Z,5.07
2022-08-19T19:37:04.441Z,3.92
2022-08-19T19:39:45.371Z,4.50
2022-08-19T19:42:20.108Z,3.65
2022-08-19T19:44:50.557Z,5.10
2022-08-19T19:47:19.546Z,4.40
2022-08-19T19:50:13.262Z,3.92
2022-08-19T19:52:41.036Z,4.97
2022-08-19T19:55:09.619Z,4.50
2022-08-19T19:57:39.714Z,5.13
2022-08-19T20:00:09.144Z,4.30
2022-08-19T20:02:36.228Z,5.55
2022-08-19T20:05:03.811Z,4.75
2022-08-19T20:07:50.112Z,3.95
2022-08-19T20:10:17.308Z,4.00
2022-08-19T20:12:44.679Z,4.40
2022-08-19T20:15:11.843Z,4.53
2022-08-19T20:17:42.617Z,4.68
2022-08-19T20:20:15.069Z,5.05
2022-08-19T20:22:43.470Z,3.95
2022-08-19T20:25:12.084Z,4.82
2022-08-19T20:27:39.829Z,4.55
2022-08-19T20:30:19.770Z,4.45
2022-08-19T20:32:48.999Z,5.50
2022-08-19T20:35:19.504Z,4.72
2022-08-19T20:37:47.253Z,5.28
2022-08-19T20:40:15.209Z,5.10
2022-08-19T20:42:43.817Z,5.18
2022-08-19T20:45:18.018Z,5.22
2022-08-19T20:48:02.704Z,4.10
2022-08-19T20:50:31.567Z,5.57
2022-08-19T20:52:58.782Z,4.63
2022-08-19T20:55:27.405Z,4.40
2022-08-19T20:57:55.152Z,5.47
2022-08-19T21:00:22.465Z,4.70
2022-08-19T21:02:50.109Z,5.10
2022-08-19T21:05:17.267Z,6.00
2022-08-19T21:07:44.420Z,4.25
2022-08-19T21:10:11.758Z,4.10
2022-08-19T21:12:39.597Z,5.00
2022-08-19T21:15:07.303Z,5.40
2022-08-19T21:17:34.686Z,4.72
2022-08-19T21:20:01.973Z,4.60
2022-08-19T21:22:29.164Z,5.30
2022-08-19T21:24:56.652Z,5.03
2022-08-19T21:27:23.886Z,5.40
2022-08-19T21:29:51.759Z,4.30
2022-08-19T21:32:20.594Z,4.53
2022-08-19T21:34:47.706Z,4.80
2022-08-19T21:37:25.237Z,5.35
2022-08-19T21:39:54.495Z,4.75
2022-08-19T21:42:23.189Z,5.35
2022-08-19T21:44:50.553Z,4.95
2022-08-19T21:47:18.265Z,4.78
2022-08-19T21:49:45.461Z,4.93
2022-08-19T21:52:13.398Z,4.50
2022-08-19T21:54:40.706Z,4.50
2022-08-19T21:57:10.888Z,5.03
2022-08-19T21:59:44.169Z,4.57
2022-08-19T22:02:20.416Z,4.53
2022-08-19T22:04:49.145Z,4.80
2022-08-19T22:07:16.930Z,5.00
2022-08-19T22:09:46.053Z,4.32
2022-08-19T22:12:26.624Z,4.50
2022-08-19T22:14:55.140Z,4.20
2022-08-19T22:17:22.993Z,5.07
2022-08-19T22:19:52.571Z,4.40
2022-08-19T22:22:24.939Z,4.53
2022-08-19T22:24:53.467Z,5.20
2022-08-19T22:27:22.204Z,4.45
2022-08-19T22:29:52.602Z,4.50
2022-08-19T22:32:27.947Z,5.68
2022-08-19T22:34:59.129Z,5.57
2022-08-19T22:37:28.865Z,4.57
2022-08-19T22:39:56.290Z,4.95
2022-08-19T22:42:24.769Z,4.47
2022-08-19T22:44:58.808Z,4.80
2022-08-19T22:47:27.152Z,5.47
2022-08-19T22:49:57.305Z,5.03
2022-08-19T22:52:24.411Z,4.78
2022-08-19T22:54:59.186Z,5.13
2022-08-19T22:57:27.567Z,4.63
2022-08-19T22:59:58.862Z,5.82
2022-08-19T23:02:34.508Z,4.57
2022-08-19T23:05:03.979Z,4.90
2022-08-19T23:07:31.525Z,4.35
2022-08-19T23:09:58.825Z,5.13
2022-08-19T23:12:35.139Z,5.43
2022-08-19T23:15:06.105Z,4.78
2022-08-19T23:17:33.693Z,4.80
2022-08-19T23:20:00.896Z,4.60
2022-08-19T23:22:30.418Z,5.32
2022-08-19T23:25:04.089Z,4.60
2022-08-19T23:27:50.072Z,5.55
2022-08-19T23:30:26.609Z,5.05
2022-08-19T23:35:41.749Z,4.90
2022-08-19T23:38:09.957Z,5.75
2022-08-19T23:40:39.255Z,4.72
2022-08-19T23:43:09.765Z,5.18
2022-08-19T23:45:40.495Z,5.38
2022-08-19T23:48:10.185Z,5.30
2022-08-19T23:50:40.266Z,4.95
2022-08-19T23:53:13.404Z,5.00
2022-08-19T23:55:43.999Z,5.55
2022-08-19T23:58:11.622Z,5.90
